sensor_id;sensor_type;location;lat;lon;timestamp;temperature;humidity
5962;DHT22;3007;50.770;0.250;2024-01-30T00:01:01;11.20;99.90
5962;DHT22;3007;50.770;0.250;2024-01-30T00:03:28;11.30;99.90
5962;DHT22;3007;50.770;0.250;2024-01-30T00:05:56;11.30;99.90
5962;DHT22;3007;50.770;0.250;2024-01-30T00:08:22;11.30;99.90
5962;DHT22;3007;50.770;0.250;2024-01-30T00:10:51;11.30;99.90
5962;DHT22;3007;50.770;0.250;2024-01-30T00:13:17;11.30;99.90
5962;DHT22;3007;50.770;0.250;2024-01-30T00:15:45;11.30;99.90
5962;DHT22;3007;50.770;0.250;2024-01-30T00:18:12;11.30;99.90
5962;DHT22;3007;50.770;0.250;2024-01-30T00:20:39;11.30;99.90
5962;DHT22;3007;50.770;0.250;2024-01-30T00:23:06;11.40;99.90
5962;DHT22;3007;50.770;0.250;2024-01-30T00:25:33;11.50;99.90
5962;DHT22;3007;50.770;0.250;2024-01-30T00:28:01;11.50;99.90
5962;DHT22;3007;50.770;0.250;2024-01-30T00:30:28;11.50;99.90
5962;DHT22;3007;50.770;0.250;2024-01-30T00:32:55;11.60;99.90
5962;DHT22;3007;50.770;0.250;2024-01-30T00:35:21;11.60;99.90
5962;DHT22;3007;50.770;0.250;2024-01-30T00:37:48;11.60;99.90
5962;DHT22;3007;50.770;0.250;2024-01-30T00:40:15;12.00;99.90
5962;DHT22;3007;50.770;0.250;2024-01-30T00:42:43;11.70;99.90
5962;DHT22;3007;50.770;0.250;2024-01-30T00:45:13;11.70;99.90
5962;DHT22;3007;50.770;0.250;2024-01-30T00:47:42;11.70;99.90
5962;DHT22;3007;50.770;0.250;2024-01-30T00:50:10;11.70;99.90
5962;DHT22;3007;50.770;0.250;2024-01-30T00:52:36;11.70;99.90
5962;DHT22;3007;50.770;0.250;2024-01-30T00:55:05;11.70;99.90
5962;DHT22;3007;50.770;0.250;2024-01-30T00:57:32;11.70;99.90
5962;DHT22;3007;50.770;0.250;2024-01-30T00:59:59;11.70;99.90
5962;DHT22;3007;50.770;0.250;2024-01-30T01:02:27;11.70;99.90
5962;DHT22;3007;50.770;0.250;2024-01-30T01:04:54;11.80;99.90
5962;DHT22;3007;50.770;0.250;2024-01-30T01:07:23;11.80;99.90
5962;DHT22;3007;50.770;0.250;2024-01-30T01:09:50;11.80;99.90
5962;DHT22;3007;50.770;0.250;2024-01-30T01:12:17;11.70;99.90
5962;DHT22;3007;50.770;0.250;2024-01-30T01:14:44;11.70;99.90
5962;DHT22;3007;50.770;0.250;2024-01-30T01:17:11;11.70;99.90
5962;DHT22;3007;50.770;0.250;2024-01-30T01:19:39;11.60;99.90
5962;DHT22;3007;50.770;0.250;2024-01-30T01:22:06;11.60;99.90
5962;DHT22;3007;50.770;0.250;2024-01-30T01:24:34;11.50;99.90
5962;DHT22;3007;50.770;0.250;2024-01-30T01:27:00;11.50;99.90
5962;DHT22;3007;50.770;0.250;2024-01-30T01:29:27;11.50;99.90
5962;DHT22;3007;50.770;0.250;2024-01-30T01:31:55;11.50;99.90
5962;DHT22;3007;50.770;0.250;2024-01-30T01:34:22;11.40;99.90
5962;DHT22;3007;50.770;0.250;2024-01-30T01:36:50;11.50;99.90
5962;DHT22;3007;50.770;0.250;2024-01-30T01:39:21;11.40;99.90
5962;DHT22;3007;50.770;0.250;2024-01-30T01:41:48;11.40;99.90
5962;DHT22;3007;50.770;0.250;2024-01-30T01:44:15;11.40;99.90
5962;DHT22;3007;50.770;0.250;2024-01-30T01:46:42;11.40;99.90
5962;DHT22;3007;50.770;0.250;2024-01-30T01:49:09;11.30;99.90
5962;DHT22;3007;50.770;0.250;2024-01-30T01:51:36;11.30;99.90
5962;DHT22;3007;50.770;0.250;2024-01-30T01:54:08;11.30;99.90
5962;DHT22;3007;50.770;0.250;2024-01-30T01:56:35;11.30;99.90
5962;DHT22;3007;50.770;0.250;2024-01-30T01:59:05;11.30;99.90
5962;DHT22;3007;50.770;0.250;2024-01-30T02:01:33;11.20;99.90
5962;DHT22;3007;50.770;0.250;2024-01-30T02:04:00;11.20;99.90
5962;DHT22;3007;50.770;0.250;2024-01-30T02:06:27;11.20;99.90
5962;DHT22;3007;50.770;0.250;2024-01-30T02:08:54;11.10;99.90
5962;DHT22;3007;50.770;0.250;2024-01-30T02:11:23;11.10;99.90
5962;DHT22;3007;50.770;0.250;2024-01-30T02:13:50;11.10;99.90
5962;DHT22;3007;50.770;0.250;2024-01-30T02:16:17;11.10;99.90
5962;DHT22;3007;50.770;0.250;2024-01-30T02:18:44;11.00;99.90
5962;DHT22;3007;50.770;0.250;2024-01-30T02:21:15;11.00;99.90
5962;DHT22;3007;50.770;0.250;2024-01-30T02:23:44;10.90;99.90
5962;DHT22;3007;50.770;0.250;2024-01-30T02:26:11;10.90;99.90
5962;DHT22;3007;50.770;0.250;2024-01-30T02:28:37;10.90;99.90
5962;DHT22;3007;50.770;0.250;2024-01-30T02:31:04;10.80;99.90
5962;DHT22;3007;50.770;0.250;2024-01-30T02:33:31;10.70;99.90
5962;DHT22;3007;50.770;0.250;2024-01-30T02:35:58;10.70;99.90
5962;DHT22;3007;50.770;0.250;2024-01-30T02:38:26;10.70;99.90
5962;DHT22;3007;50.770;0.250;2024-01-30T02:40:54;10.60;99.90
5962;DHT22;3007;50.770;0.250;2024-01-30T02:43:21;10.60;99.90
5962;DHT22;3007;50.770;0.250;2024-01-30T02:45:48;10.50;99.90
5962;DHT22;3007;50.770;0.250;2024-01-30T02:48:15;10.40;99.90
5962;DHT22;3007;50.770;0.250;2024-01-30T02:50:41;10.40;99.90
5962;DHT22;3007;50.770;0.250;2024-01-30T02:53:08;10.40;99.90
5962;DHT22;3007;50.770;0.250;2024-01-30T02:55:36;10.40;99.90
5962;DHT22;3007;50.770;0.250;2024-01-30T02:58:03;10.40;99.90
5962;DHT22;3007;50.770;0.250;2024-01-30T03:00:30;10.40;99.90
5962;DHT22;3007;50.770;0.250;2024-01-30T03:02:57;10.40;99.90
5962;DHT22;3007;50.770;0.250;2024-01-30T03:05:24;10.40;99.90
5962;DHT22;3007;50.770;0.250;2024-01-30T03:07:51;10.40;99.90
5962;DHT22;3007;50.770;0.250;2024-01-30T03:10:17;10.40;99.90
5962;DHT22;3007;50.770;0.250;2024-01-30T03:12:46;10.40;99.90
5962;DHT22;3007;50.770;0.250;2024-01-30T03:15:13;10.40;99.90
5962;DHT22;3007;50.770;0.250;2024-01-30T03:17:40;10.40;99.90
5962;DHT22;3007;50.770;0.250;2024-01-30T03:20:07;10.40;99.90
5962;DHT22;3007;50.770;0.250;2024-01-30T03:22:34;10.40;99.90
5962;DHT22;3007;50.770;0.250;2024-01-30T03:25:01;10.40;99.90
5962;DHT22;3007;50.770;0.250;2024-01-30T03:27:28;10.40;99.90
5962;DHT22;3007;50.770;0.250;2024-01-30T03:29:56;10.30;99.90
5962;DHT22;3007;50.770;0.250;2024-01-30T03:32:23;10.30;99.90
5962;DHT22;3007;50.770;0.250;2024-01-30T03:34:50;10.30;99.90
5962;DHT22;3007;50.770;0.250;2024-01-30T03:37:17;10.30;99.90
5962;DHT22;3007;50.770;0.250;2024-01-30T03:39:44;10.30;99.90
5962;DHT22;3007;50.770;0.250;2024-01-30T03:42:10;10.30;99.90
5962;DHT22;3007;50.770;0.250;2024-01-30T03:44:37;10.30;99.90
5962;DHT22;3007;50.770;0.250;2024-01-30T03:47:05;10.20;99.90
5962;DHT22;3007;50.770;0.250;2024-01-30T03:49:34;10.30;99.90
5962;DHT22;3007;50.770;0.250;2024-01-30T03:52:00;10.30;99.90
5962;DHT22;3007;50.770;0.250;2024-01-30T03:54:27;10.30;99.90
5962;DHT22;3007;50.770;0.250;2024-01-30T03:56:54;10.30;99.90
5962;DHT22;3007;50.770;0.250;2024-01-30T03:59:21;10.30;99.90
5962;DHT22;3007;50.770;0.250;2024-01-30T04:01:49;10.30;99.90
5962;DHT22;3007;50.770;0.250;2024-01-30T04:04:18;10.20;99.90
5962;DHT22;3007;50.770;0.250;2024-01-30T04:06:45;10.30;99.90
5962;DHT22;3007;50.770;0.250;2024-01-30T04:09:12;10.20;99.90
5962;DHT22;3007;50.770;0.250;2024-01-30T04:11:40;10.30;99.90
5962;DHT22;3007;50.770;0.250;2024-01-30T04:14:07;10.20;99.90
5962;DHT22;3007;50.770;0.250;2024-01-30T04:16:34;10.20;99.90
5962;DHT22;3007;50.770;0.250;2024-01-30T04:19:01;10.20;99.90
5962;DHT22;3007;50.770;0.250;2024-01-30T04:21:30;10.20;99.90
5962;DHT22;3007;50.770;0.250;2024-01-30T04:23:57;10.20;99.90
5962;DHT22;3007;50.770;0.250;2024-01-30T04:26:24;10.20;99.90
5962;DHT22;3007;50.770;0.250;2024-01-30T04:28:51;10.20;99.90
5962;DHT22;3007;50.770;0.250;2024-01-30T04:31:18;10.20;99.90
5962;DHT22;3007;50.770;0.250;2024-01-30T04:33:45;10.20;99.90
5962;DHT22;3007;50.770;0.250;2024-01-30T04:36:11;10.10;99.90
5962;DHT22;3007;50.770;0.250;2024-01-30T04:38:40;10.20;99.90
5962;DHT22;3007;50.770;0.250;2024-01-30T04:41:07;10.10;99.90
5962;DHT22;3007;50.770;0.250;2024-01-30T04:43:34;10.10;99.90
5962;DHT22;3007;50.770;0.250;2024-01-30T04:46:01;10.10;99.90
5962;DHT22;3007;50.770;0.250;2024-01-30T04:48:28;10.00;99.90
5962;DHT22;3007;50.770;0.250;2024-01-30T04:50:55;10.00;99.90
5962;DHT22;3007;50.770;0.250;2024-01-30T04:53:22;10.00;99.90
5962;DHT22;3007;50.770;0.250;2024-01-30T04:55:50;9.90;99.90
5962;DHT22;3007;50.770;0.250;2024-01-30T04:58:17;9.90;99.90
5962;DHT22;3007;50.770;0.250;2024-01-30T05:00:44;9.80;99.90
5962;DHT22;3007;50.770;0.250;2024-01-30T05:03:11;9.80;99.90
5962;DHT22;3007;50.770;0.250;2024-01-30T05:05:38;9.80;99.90
5962;DHT22;3007;50.770;0.250;2024-01-30T05:08:05;9.80;99.90
5962;DHT22;3007;50.770;0.250;2024-01-30T05:10:32;9.80;99.90
5962;DHT22;3007;50.770;0.250;2024-01-30T05:13:00;9.80;99.90
5962;DHT22;3007;50.770;0.250;2024-01-30T05:15:27;9.80;99.90
5962;DHT22;3007;50.770;0.250;2024-01-30T05:17:54;9.80;99.90
5962;DHT22;3007;50.770;0.250;2024-01-30T05:20:21;9.80;99.90
5962;DHT22;3007;50.770;0.250;2024-01-30T05:22:47;9.80;99.90
5962;DHT22;3007;50.770;0.250;2024-01-30T05:25:14;9.80;99.90
5962;DHT22;3007;50.770;0.250;2024-01-30T05:27:41;9.80;99.90
5962;DHT22;3007;50.770;0.250;2024-01-30T05:30:10;9.70;99.90
5962;DHT22;3007;50.770;0.250;2024-01-30T05:32:37;9.80;99.90
5962;DHT22;3007;50.770;0.250;2024-01-30T05:35:04;9.70;99.90
5962;DHT22;3007;50.770;0.250;2024-01-30T05:37:31;9.70;99.90
5962;DHT22;3007;50.770;0.250;2024-01-30T05:39:58;9.60;99.90
5962;DHT22;3007;50.770;0.250;2024-01-30T05:42:25;9.60;99.90
5962;DHT22;3007;50.770;0.250;2024-01-30T05:44:52;9.60;99.90
5962;DHT22;3007;50.770;0.250;2024-01-30T05:47:20;9.60;99.90
5962;DHT22;3007;50.770;0.250;2024-01-30T05:49:47;9.60;99.90
5962;DHT22;3007;50.770;0.250;2024-01-30T05:52:14;9.50;99.90
5962;DHT22;3007;50.770;0.250;2024-01-30T05:54:41;9.50;99.90
5962;DHT22;3007;50.770;0.250;2024-01-30T05:57:08;9.40;99.90
5962;DHT22;3007;50.770;0.250;2024-01-30T05:59:35;9.40;99.90
5962;DHT22;3007;50.770;0.250;2024-01-30T06:02:03;9.30;99.90
5962;DHT22;3007;50.770;0.250;2024-01-30T06:04:31;9.30;99.90
5962;DHT22;3007;50.770;0.250;2024-01-30T06:06:58;9.30;99.90
5962;DHT22;3007;50.770;0.250;2024-01-30T06:09:27;9.30;99.90
5962;DHT22;3007;50.770;0.250;2024-01-30T06:11:54;9.30;99.90
5962;DHT22;3007;50.770;0.250;2024-01-30T06:14:21;9.30;99.90
5962;DHT22;3007;50.770;0.250;2024-01-30T06:16:47;9.30;99.90
5962;DHT22;3007;50.770;0.250;2024-01-30T06:19:14;9.30;99.90
5962;DHT22;3007;50.770;0.250;2024-01-30T06:21:42;9.30;99.90
5962;DHT22;3007;50.770;0.250;2024-01-30T06:24:09;9.30;99.90
5962;DHT22;3007;50.770;0.250;2024-01-30T06:26:36;9.30;99.90
5962;DHT22;3007;50.770;0.250;2024-01-30T06:29:03;9.30;99.90
5962;DHT22;3007;50.770;0.250;2024-01-30T06:31:30;9.30;99.90
5962;DHT22;3007;50.770;0.250;2024-01-30T06:33:56;9.30;99.90
5962;DHT22;3007;50.770;0.250;2024-01-30T06:36:23;9.30;99.90
5962;DHT22;3007;50.770;0.250;2024-01-30T06:38:52;9.30;99.90
5962;DHT22;3007;50.770;0.250;2024-01-30T06:41:19;9.30;99.90
5962;DHT22;3007;50.770;0.250;2024-01-30T06:43:46;9.30;99.90
5962;DHT22;3007;50.770;0.250;2024-01-30T06:46:13;9.30;99.90
5962;DHT22;3007;50.770;0.250;2024-01-30T06:48:39;9.30;99.90
5962;DHT22;3007;50.770;0.250;2024-01-30T06:51:06;9.30;99.90
5962;DHT22;3007;50.770;0.250;2024-01-30T06:53:33;9.30;99.90
5962;DHT22;3007;50.770;0.250;2024-01-30T06:56:02;9.30;99.90
5962;DHT22;3007;50.770;0.250;2024-01-30T06:58:29;9.30;99.90
5962;DHT22;3007;50.770;0.250;2024-01-30T07:00:56;9.30;99.90
5962;DHT22;3007;50.770;0.250;2024-01-30T07:03:23;9.20;99.90
5962;DHT22;3007;50.770;0.250;2024-01-30T07:05:50;9.20;99.90
5962;DHT22;3007;50.770;0.250;2024-01-30T07:08:17;9.20;99.90
5962;DHT22;3007;50.770;0.250;2024-01-30T07:10:44;9.20;99.90
5962;DHT22;3007;50.770;0.250;2024-01-30T07:13:12;9.20;99.90
5962;DHT22;3007;50.770;0.250;2024-01-30T07:15:41;9.20;99.90
5962;DHT22;3007;50.770;0.250;2024-01-30T07:18:08;9.20;99.90
5962;DHT22;3007;50.770;0.250;2024-01-30T07:20:36;9.10;99.90
5962;DHT22;3007;50.770;0.250;2024-01-30T07:23:03;9.10;99.90
5962;DHT22;3007;50.770;0.250;2024-01-30T07:25:30;9.10;99.90
5962;DHT22;3007;50.770;0.250;2024-01-30T07:27:57;9.10;99.90
5962;DHT22;3007;50.770;0.250;2024-01-30T07:30:25;9.00;99.90
5962;DHT22;3007;50.770;0.250;2024-01-30T07:32:52;9.00;99.90
5962;DHT22;3007;50.770;0.250;2024-01-30T07:35:19;9.00;99.90
5962;DHT22;3007;50.770;0.250;2024-01-30T07:37:46;9.00;99.90
5962;DHT22;3007;50.770;0.250;2024-01-30T07:40:13;9.00;99.90
5962;DHT22;3007;50.770;0.250;2024-01-30T07:42:40;9.00;99.90
5962;DHT22;3007;50.770;0.250;2024-01-30T07:45:09;9.00;99.90
5962;DHT22;3007;50.770;0.250;2024-01-30T07:47:37;8.90;99.90
5962;DHT22;3007;50.770;0.250;2024-01-30T07:50:06;9.00;99.90
5962;DHT22;3007;50.770;0.250;2024-01-30T07:52:32;9.00;99.90
5962;DHT22;3007;50.770;0.250;2024-01-30T07:54:59;9.00;99.90
5962;DHT22;3007;50.770;0.250;2024-01-30T07:57:25;9.00;99.90
5962;DHT22;3007;50.770;0.250;2024-01-30T07:59:52;9.00;99.90
5962;DHT22;3007;50.770;0.250;2024-01-30T08:02:19;9.00;99.90
5962;DHT22;3007;50.770;0.250;2024-01-30T08:04:47;9.00;99.90
5962;DHT22;3007;50.770;0.250;2024-01-30T08:07:15;8.90;99.90
5962;DHT22;3007;50.770;0.250;2024-01-30T08:09:42;8.90;99.90
5962;DHT22;3007;50.770;0.250;2024-01-30T08:12:09;8.90;99.90
5962;DHT22;3007;50.770;0.250;2024-01-30T08:14:36;9.00;99.90
5962;DHT22;3007;50.770;0.250;2024-01-30T08:17:03;8.90;99.90
5962;DHT22;3007;50.770;0.250;2024-01-30T08:19:30;8.90;99.90
5962;DHT22;3007;50.770;0.250;2024-01-30T08:21:58;8.90;99.90
5962;DHT22;3007;50.770;0.250;2024-01-30T08:24:25;8.90;99.90
5962;DHT22;3007;50.770;0.250;2024-01-30T08:26:52;8.90;99.90
5962;DHT22;3007;50.770;0.250;2024-01-30T08:29:18;9.10;99.90
5962;DHT22;3007;50.770;0.250;2024-01-30T08:31:46;8.90;99.90
5962;DHT22;3007;50.770;0.250;2024-01-30T08:34:13;8.90;99.90
5962;DHT22;3007;50.770;0.250;2024-01-30T08:36:40;8.90;99.90
5962;DHT22;3007;50.770;0.250;2024-01-30T08:39:08;8.90;99.90
5962;DHT22;3007;50.770;0.250;2024-01-30T08:41:35;8.90;99.90
5962;DHT22;3007;50.770;0.250;2024-01-30T08:44:01;8.90;99.90
5962;DHT22;3007;50.770;0.250;2024-01-30T08:46:29;8.90;99.90
5962;DHT22;3007;50.770;0.250;2024-01-30T08:48:56;8.90;99.90
5962;DHT22;3007;50.770;0.250;2024-01-30T08:51:23;8.90;99.90
5962;DHT22;3007;50.770;0.250;2024-01-30T08:53:50;8.90;99.90
5962;DHT22;3007;50.770;0.250;2024-01-30T08:56:19;8.90;99.90
5962;DHT22;3007;50.770;0.250;2024-01-30T08:58:46;8.90;99.90
5962;DHT22;3007;50.770;0.250;2024-01-30T09:01:13;8.90;99.90
5962;DHT22;3007;50.770;0.250;2024-01-30T09:03:40;8.90;99.90
5962;DHT22;3007;50.770;0.250;2024-01-30T09:06:09;8.90;99.90
5962;DHT22;3007;50.770;0.250;2024-01-30T09:08:36;9.00;99.90
5962;DHT22;3007;50.770;0.250;2024-01-30T09:11:08;8.90;99.90
5962;DHT22;3007;50.770;0.250;2024-01-30T09:13:36;9.00;99.90
5962;DHT22;3007;50.770;0.250;2024-01-30T09:16:04;9.00;99.90
5962;DHT22;3007;50.770;0.250;2024-01-30T09:18:31;9.00;99.90
5962;DHT22;3007;50.770;0.250;2024-01-30T09:20:58;9.00;99.90
5962;DHT22;3007;50.770;0.250;2024-01-30T09:23:26;9.10;99.90
5962;DHT22;3007;50.770;0.250;2024-01-30T09:25:53;9.10;99.90
5962;DHT22;3007;50.770;0.250;2024-01-30T09:28:20;9.10;99.90
5962;DHT22;3007;50.770;0.250;2024-01-30T09:30:48;9.10;99.90
5962;DHT22;3007;50.770;0.250;2024-01-30T09:33:15;9.10;99.90
5962;DHT22;3007;50.770;0.250;2024-01-30T09:35:42;9.10;99.90
5962;DHT22;3007;50.770;0.250;2024-01-30T09:38:09;9.10;99.90
5962;DHT22;3007;50.770;0.250;2024-01-30T09:40:36;9.20;99.90
5962;DHT22;3007;50.770;0.250;2024-01-30T09:43:03;9.10;99.90
5962;DHT22;3007;50.770;0.250;2024-01-30T09:45:32;9.20;99.90
5962;DHT22;3007;50.770;0.250;2024-01-30T09:48:01;9.20;99.90
5962;DHT22;3007;50.770;0.250;2024-01-30T09:50:29;9.20;99.90
5962;DHT22;3007;50.770;0.250;2024-01-30T09:52:57;9.20;99.90
5962;DHT22;3007;50.770;0.250;2024-01-30T09:55:25;9.20;99.90
5962;DHT22;3007;50.770;0.250;2024-01-30T09:57:53;9.20;99.90
5962;DHT22;3007;50.770;0.250;2024-01-30T10:00:19;9.20;99.90
5962;DHT22;3007;50.770;0.250;2024-01-30T10:02:48;9.20;99.90
5962;DHT22;3007;50.770;0.250;2024-01-30T10:05:19;9.30;99.90
5962;DHT22;3007;50.770;0.250;2024-01-30T10:07:55;9.30;99.90
5962;DHT22;3007;50.770;0.250;2024-01-30T10:10:22;9.30;99.90
5962;DHT22;3007;50.770;0.250;2024-01-30T10:12:49;9.40;99.90
5962;DHT22;3007;50.770;0.250;2024-01-30T10:15:17;9.40;99.90
5962;DHT22;3007;50.770;0.250;2024-01-30T10:17:44;9.40;99.90
5962;DHT22;3007;50.770;0.250;2024-01-30T10:20:12;9.50;99.90
5962;DHT22;3007;50.770;0.250;2024-01-30T10:22:41;9.50;99.90
5962;DHT22;3007;50.770;0.250;2024-01-30T10:25:10;9.60;99.90
5962;DHT22;3007;50.770;0.250;2024-01-30T10:27:39;9.60;99.90
5962;DHT22;3007;50.770;0.250;2024-01-30T10:30:07;9.60;99.90
5962;DHT22;3007;50.770;0.250;2024-01-30T10:32:34;9.60;99.90
5962;DHT22;3007;50.770;0.250;2024-01-30T10:35:01;9.60;99.90
5962;DHT22;3007;50.770;0.250;2024-01-30T10:37:30;9.60;99.90
5962;DHT22;3007;50.770;0.250;2024-01-30T10:40:02;9.60;99.90
5962;DHT22;3007;50.770;0.250;2024-01-30T10:42:32;9.60;99.90
5962;DHT22;3007;50.770;0.250;2024-01-30T10:45:05;9.70;99.90
5962;DHT22;3007;50.770;0.250;2024-01-30T10:47:34;9.70;99.90
5962;DHT22;3007;50.770;0.250;2024-01-30T10:50:02;9.70;99.90
5962;DHT22;3007;50.770;0.250;2024-01-30T10:52:30;9.70;99.90
5962;DHT22;3007;50.770;0.250;2024-01-30T10:55:00;9.70;99.90
5962;DHT22;3007;50.770;0.250;2024-01-30T10:57:27;9.70;99.90
5962;DHT22;3007;50.770;0.250;2024-01-30T10:59:57;9.80;99.90
5962;DHT22;3007;50.770;0.250;2024-01-30T11:02:25;9.80;99.90
5962;DHT22;3007;50.770;0.250;2024-01-30T11:04:56;9.80;99.90
5962;DHT22;3007;50.770;0.250;2024-01-30T11:07:25;9.90;99.90
5962;DHT22;3007;50.770;0.250;2024-01-30T11:09:53;9.90;99.90
5962;DHT22;3007;50.770;0.250;2024-01-30T11:12:25;9.80;99.90
5962;DHT22;3007;50.770;0.250;2024-01-30T11:15:05;9.80;99.90
5962;DHT22;3007;50.770;0.250;2024-01-30T11:17:43;9.90;99.90
5962;DHT22;3007;50.770;0.250;2024-01-30T11:20:10;9.80;99.90
5962;DHT22;3007;50.770;0.250;2024-01-30T11:22:41;9.90;99.90
5962;DHT22;3007;50.770;0.250;2024-01-30T11:25:11;9.90;99.90
5962;DHT22;3007;50.770;0.250;2024-01-30T11:27:41;9.90;99.90
5962;DHT22;3007;50.770;0.250;2024-01-30T11:30:08;9.90;99.90
5962;DHT22;3007;50.770;0.250;2024-01-30T11:32:35;9.90;99.90
5962;DHT22;3007;50.770;0.250;2024-01-30T11:35:03;9.90;99.90
5962;DHT22;3007;50.770;0.250;2024-01-30T11:37:32;9.90;99.90
5962;DHT22;3007;50.770;0.250;2024-01-30T11:40:03;9.90;99.90
5962;DHT22;3007;50.770;0.250;2024-01-30T11:42:30;10.00;99.90
5962;DHT22;3007;50.770;0.250;2024-01-30T11:45:01;10.00;99.90
5962;DHT22;3007;50.770;0.250;2024-01-30T11:47:28;10.00;99.90
5962;DHT22;3007;50.770;0.250;2024-01-30T11:49:55;10.00;99.90
5962;DHT22;3007;50.770;0.250;2024-01-30T11:52:22;10.00;99.90
5962;DHT22;3007;50.770;0.250;2024-01-30T11:54:49;10.00;99.90
5962;DHT22;3007;50.770;0.250;2024-01-30T11:57:16;10.00;99.90
5962;DHT22;3007;50.770;0.250;2024-01-30T11:59:43;10.00;99.90
5962;DHT22;3007;50.770;0.250;2024-01-30T12:02:15;10.10;99.90
5962;DHT22;3007;50.770;0.250;2024-01-30T12:04:42;10.10;99.90
5962;DHT22;3007;50.770;0.250;2024-01-30T12:07:09;10.00;99.90
5962;DHT22;3007;50.770;0.250;2024-01-30T12:09:36;10.00;99.90
5962;DHT22;3007;50.770;0.250;2024-01-30T12:12:03;10.00;99.90
5962;DHT22;3007;50.770;0.250;2024-01-30T12:14:31;10.00;99.90
5962;DHT22;3007;50.770;0.250;2024-01-30T12:16:58;10.00;99.90
5962;DHT22;3007;50.770;0.250;2024-01-30T12:19:26;10.10;99.90
5962;DHT22;3007;50.770;0.250;2024-01-30T12:21:54;10.00;99.90
5962;DHT22;3007;50.770;0.250;2024-01-30T12:24:22;10.00;99.90
5962;DHT22;3007;50.770;0.250;2024-01-30T12:26:49;10.00;99.90
5962;DHT22;3007;50.770;0.250;2024-01-30T12:29:17;10.00;99.90
5962;DHT22;3007;50.770;0.250;2024-01-30T12:31:44;10.00;99.90
5962;DHT22;3007;50.770;0.250;2024-01-30T12:34:14;10.00;99.90
5962;DHT22;3007;50.770;0.250;2024-01-30T12:36:43;10.00;99.90
5962;DHT22;3007;50.770;0.250;2024-01-30T12:39:11;10.00;99.90
5962;DHT22;3007;50.770;0.250;2024-01-30T12:41:40;9.90;99.90
5962;DHT22;3007;50.770;0.250;2024-01-30T12:44:07;9.90;99.90
5962;DHT22;3007;50.770;0.250;2024-01-30T12:46:34;9.80;99.90
5962;DHT22;3007;50.770;0.250;2024-01-30T12:49:01;9.80;99.90
5962;DHT22;3007;50.770;0.250;2024-01-30T12:51:28;9.70;99.90
5962;DHT22;3007;50.770;0.250;2024-01-30T12:53:56;9.70;99.90
5962;DHT22;3007;50.770;0.250;2024-01-30T12:56:23;9.70;99.90
5962;DHT22;3007;50.770;0.250;2024-01-30T12:58:50;9.70;99.90
5962;DHT22;3007;50.770;0.250;2024-01-30T13:01:17;9.60;99.90
5962;DHT22;3007;50.770;0.250;2024-01-30T13:03:44;9.60;99.90
5962;DHT22;3007;50.770;0.250;2024-01-30T13:06:10;9.60;99.90
5962;DHT22;3007;50.770;0.250;2024-01-30T13:08:38;9.50;99.90
5962;DHT22;3007;50.770;0.250;2024-01-30T13:11:06;9.50;99.90
5962;DHT22;3007;50.770;0.250;2024-01-30T13:13:33;9.50;99.90
5962;DHT22;3007;50.770;0.250;2024-01-30T13:16:01;9.50;99.90
5962;DHT22;3007;50.770;0.250;2024-01-30T13:18:28;9.50;99.90
5962;DHT22;3007;50.770;0.250;2024-01-30T13:20:54;9.50;99.90
5962;DHT22;3007;50.770;0.250;2024-01-30T13:23:21;9.50;99.90
5962;DHT22;3007;50.770;0.250;2024-01-30T13:25:48;9.50;99.90
5962;DHT22;3007;50.770;0.250;2024-01-30T13:28:16;9.50;99.90
5962;DHT22;3007;50.770;0.250;2024-01-30T13:30:43;9.40;99.90
5962;DHT22;3007;50.770;0.250;2024-01-30T13:33:10;9.40;99.90
5962;DHT22;3007;50.770;0.250;2024-01-30T13:35:37;9.40;99.90
5962;DHT22;3007;50.770;0.250;2024-01-30T13:38:04;9.40;99.90
5962;DHT22;3007;50.770;0.250;2024-01-30T13:40:31;9.40;99.90
5962;DHT22;3007;50.770;0.250;2024-01-30T13:42:58;9.40;99.90
5962;DHT22;3007;50.770;0.250;2024-01-30T13:45:26;9.30;99.90
5962;DHT22;3007;50.770;0.250;2024-01-30T13:47:53;9.30;99.90
5962;DHT22;3007;50.770;0.250;2024-01-30T13:50:20;9.30;99.90
5962;DHT22;3007;50.770;0.250;2024-01-30T13:52:46;9.30;99.90
5962;DHT22;3007;50.770;0.250;2024-01-30T13:55:13;9.30;99.90
5962;DHT22;3007;50.770;0.250;2024-01-30T13:57:40;9.30;99.90
5962;DHT22;3007;50.770;0.250;2024-01-30T14:00:08;9.30;99.90
5962;DHT22;3007;50.770;0.250;2024-01-30T14:02:36;9.30;99.90
5962;DHT22;3007;50.770;0.250;2024-01-30T14:05:04;9.30;99.90
5962;DHT22;3007;50.770;0.250;2024-01-30T14:07:31;9.30;99.90
5962;DHT22;3007;50.770;0.250;2024-01-30T14:09:58;9.30;99.90
5962;DHT22;3007;50.770;0.250;2024-01-30T14:12:25;9.20;99.90
5962;DHT22;3007;50.770;0.250;2024-01-30T14:14:52;9.30;99.90
5962;DHT22;3007;50.770;0.250;2024-01-30T14:17:19;9.20;99.90
5962;DHT22;3007;50.770;0.250;2024-01-30T14:19:47;9.30;99.90
5962;DHT22;3007;50.770;0.250;2024-01-30T14:22:14;9.20;99.90
5962;DHT22;3007;50.770;0.250;2024-01-30T14:24:40;9.20;99.90
5962;DHT22;3007;50.770;0.250;2024-01-30T14:27:07;9.20;99.90
5962;DHT22;3007;50.770;0.250;2024-01-30T14:29:34;9.20;99.90
5962;DHT22;3007;50.770;0.250;2024-01-30T14:32:02;9.20;99.90
5962;DHT22;3007;50.770;0.250;2024-01-30T14:34:29;9.20;99.90
5962;DHT22;3007;50.770;0.250;2024-01-30T14:36:57;9.20;99.90
5962;DHT22;3007;50.770;0.250;2024-01-30T14:39:24;9.20;99.90
5962;DHT22;3007;50.770;0.250;2024-01-30T14:41:51;9.20;99.90
5962;DHT22;3007;50.770;0.250;2024-01-30T14:44:18;9.20;99.90
5962;DHT22;3007;50.770;0.250;2024-01-30T14:46:45;9.20;99.90
5962;DHT22;3007;50.770;0.250;2024-01-30T14:49:12;9.20;99.90
5962;DHT22;3007;50.770;0.250;2024-01-30T14:51:41;9.20;99.90
5962;DHT22;3007;50.770;0.250;2024-01-30T14:54:09;9.20;99.90
5962;DHT22;3007;50.770;0.250;2024-01-30T14:56:36;9.10;99.90
5962;DHT22;3007;50.770;0.250;2024-01-30T14:59:03;9.10;99.90
5962;DHT22;3007;50.770;0.250;2024-01-30T15:01:30;9.10;99.90
5962;DHT22;3007;50.770;0.250;2024-01-30T15:03:57;9.20;99.90
5962;DHT22;3007;50.770;0.250;2024-01-30T15:06:24;9.10;99.90
5962;DHT22;3007;50.770;0.250;2024-01-30T15:08:52;9.10;99.90
5962;DHT22;3007;50.770;0.250;2024-01-30T15:11:20;9.10;99.90
5962;DHT22;3007;50.770;0.250;2024-01-30T15:13:47;9.10;99.90
5962;DHT22;3007;50.770;0.250;2024-01-30T15:16:14;9.10;99.90
5962;DHT22;3007;50.770;0.250;2024-01-30T15:18:41;9.10;99.90
5962;DHT22;3007;50.770;0.250;2024-01-30T15:21:08;9.10;99.90
5962;DHT22;3007;50.770;0.250;2024-01-30T15:23:35;9.10;99.90
5962;DHT22;3007;50.770;0.250;2024-01-30T15:26:02;9.10;99.90
5962;DHT22;3007;50.770;0.250;2024-01-30T15:28:37;9.10;99.90
5962;DHT22;3007;50.770;0.250;2024-01-30T15:31:05;9.10;99.90
5962;DHT22;3007;50.770;0.250;2024-01-30T15:33:32;9.00;99.90
5962;DHT22;3007;50.770;0.250;2024-01-30T15:36:00;9.00;99.90
5962;DHT22;3007;50.770;0.250;2024-01-30T15:38:27;9.00;99.90
5962;DHT22;3007;50.770;0.250;2024-01-30T15:40:54;9.00;99.90
5962;DHT22;3007;50.770;0.250;2024-01-30T15:43:21;9.00;99.90
5962;DHT22;3007;50.770;0.250;2024-01-30T15:45:50;9.00;99.90
5962;DHT22;3007;50.770;0.250;2024-01-30T15:48:17;9.00;99.90
5962;DHT22;3007;50.770;0.250;2024-01-30T15:50:44;9.00;99.90
5962;DHT22;3007;50.770;0.250;2024-01-30T15:53:11;9.00;99.90
5962;DHT22;3007;50.770;0.250;2024-01-30T15:55:38;9.00;99.90
5962;DHT22;3007;50.770;0.250;2024-01-30T15:58:05;9.00;99.90
5962;DHT22;3007;50.770;0.250;2024-01-30T16:00:32;9.00;99.90
5962;DHT22;3007;50.770;0.250;2024-01-30T16:03:00;9.00;99.90
5962;DHT22;3007;50.770;0.250;2024-01-30T16:05:27;9.00;99.90
5962;DHT22;3007;50.770;0.250;2024-01-30T16:07:54;8.90;99.90
5962;DHT22;3007;50.770;0.250;2024-01-30T16:10:21;8.90;99.90
5962;DHT22;3007;50.770;0.250;2024-01-30T16:12:48;8.90;99.90